Time;durP1;ratioP1;P1;durP2;ratioP2;P2;SDS_P1;SDS_P2;PMS_P1;PMS_P2;Temp;Humidity;BMP_temperature;BMP_pressure;BME280_temperature;BME280_humidity;BME280_pressure;Samples;Min_cycle;Max_cycle;Signal;HPM_P1;HPM_P2
2022/04/29 00:01:03;;;;;;;;;;;;;;;25.63;36.84;95002.75;4951602;28;7349;-51
2022/04/29 00:03:32;;;;;;;;;;;;;;;25.61;36.84;95005.25;4951997;28;7740;-52
2022/04/29 00:06:29;;;;;;;;;;;;;;;25.62;36.63;95006.00;4934158;28;7279;-51
2022/04/29 00:09:03;;;;;;;;;;;;;;;25.60;37.20;95003.00;4905157;29;9084;-53
2022/04/29 00:11:41;;;;;;;;;;;;;;;25.58;37.56;94995.22;4905025;29;8026;-53
2022/04/29 00:14:08;;;;;;;;;;;;;;;25.59;36.70;94999.47;4911247;29;7291;-52
2022/04/29 00:16:37;;;;;;;;;;;;;;;25.58;37.13;95002.75;4916737;29;8429;-52
2022/04/29 00:19:05;;;;;;;;;;;;;;;25.58;36.50;95006.22;4926359;29;7143;-51
2022/04/29 00:21:40;;;;;;;;;;;;;;;25.57;36.79;94993.72;4920229;29;8733;-51
2022/04/29 00:24:12;;;;;;;;;;;;;;;25.56;36.82;95008.72;4916295;29;7399;-51
2022/04/29 00:26:39;;;;;;;;;;;;;;;25.55;37.13;94998.22;4916848;29;7902;-53
2022/04/29 00:29:16;;;;;;;;;;;;;;;25.54;36.63;94993.94;4916867;28;8404;-53
2022/04/29 00:31:44;;;;;;;;;;;;;;;25.52;37.46;94991.69;4936609;28;9138;-53
2022/04/29 00:34:23;;;;;;;;;;;;;;;25.52;37.31;94993.69;4944112;28;8723;-52
2022/04/29 00:36:52;;;;;;;;;;;;;;;25.47;37.13;94986.91;4947102;28;9107;-51
2022/04/29 00:39:19;;;;;;;;;;;;;;;25.52;36.97;94986.19;4951490;28;7066;-52
2022/04/29 00:41:47;;;;;;;;;;;;;;;25.49;37.11;94981.66;4941328;28;8158;-51
2022/04/29 00:44:13;;;;;;;;;;;;;;;25.51;37.34;94984.69;4933535;28;8725;-53
2022/04/29 00:46:46;;;;;;;;;;;;;;;25.51;37.23;94987.44;4983003;28;7362;-53
2022/04/29 00:49:43;;;;;;;;;;;;;;;25.50;36.58;94985.94;4989149;28;6857;-49
2022/04/29 00:52:31;;;;;;;;;;;;;;;25.49;36.69;94984.41;4943029;28;7417;-53
2022/04/29 00:55:06;;;;;;;;;;;;;;;25.49;37.34;94978.91;4944651;28;9091;-51
2022/04/29 00:57:50;;;;;;;;;;;;;;;25.48;37.03;94976.66;4934791;28;8591;-51
2022/04/29 01:00:18;;;;;;;;;;;;;;;25.46;36.96;94974.41;4934810;28;9065;-51
2022/04/29 01:02:57;;;;;;;;;;;;;;;25.48;37.35;94969.16;4934936;28;9044;-53
2022/04/29 01:05:52;;;;;;;;;;;;;;;25.47;37.57;94970.38;4931889;29;9426;-52
2022/04/29 01:08:18;;;;;;;;;;;;;;;25.47;37.01;94969.66;4851949;29;7446;-53
2022/04/29 01:10:56;;;;;;;;;;;;;;;25.49;37.46;94969.91;4868582;29;9352;-53
2022/04/29 01:13:22;;;;;;;;;;;;;;;25.45;37.03;94972.88;4851261;29;7360;-50
2022/04/29 01:16:01;;;;;;;;;;;;;;;25.46;37.14;94970.88;4850040;29;9378;-51
2022/04/29 01:18:28;;;;;;;;;;;;;;;25.44;37.31;94974.16;4858148;29;9481;-49
2022/04/29 01:21:06;;;;;;;;;;;;;;;25.44;37.54;94971.38;4861950;29;8931;-52
2022/04/29 01:23:33;;;;;;;;;;;;;;;25.38;37.16;94960.31;4850521;29;6989;-49
2022/04/29 01:26:04;;;;;;;;;;;;;;;25.42;37.21;94962.88;4852775;29;7199;-52
2022/04/29 01:28:31;;;;;;;;;;;;;;;25.42;37.37;94971.13;4870712;29;9403;-51
2022/04/29 01:31:05;;;;;;;;;;;;;;;25.42;36.78;94960.13;4890863;29;7204;-52
2022/04/29 01:33:35;;;;;;;;;;;;;;;25.41;37.36;94955.81;4907465;29;7045;-53
2022/04/29 01:36:01;;;;;;;;;;;;;;;25.41;37.35;94961.31;4901614;29;9027;-50
2022/04/29 01:38:27;;;;;;;;;;;;;;;25.41;37.09;94958.56;4891237;29;6976;-53
2022/04/29 01:40:55;;;;;;;;;;;;;;;25.40;37.67;94960.56;4891502;29;9054;-52
2022/04/29 01:43:23;;;;;;;;;;;;;;;25.39;37.45;94955.56;4904355;29;7371;-51
2022/04/29 01:45:49;;;;;;;;;;;;;;;25.37;37.73;94949.81;4998595;28;7250;-52
2022/04/29 01:48:21;;;;;;;;;;;;;;;25.37;37.11;94958.06;4987362;28;9281;-52
2022/04/29 01:50:48;;;;;;;;;;;;;;;25.36;37.32;94957.31;4986153;28;9040;-49
2022/04/29 01:53:16;;;;;;;;;;;;;;;25.37;36.78;94955.31;4986031;28;8948;-53
2022/04/29 01:55:44;;;;;;;;;;;;;;;25.33;37.40;94944.53;5002385;28;7870;-51
2022/04/29 01:58:10;;;;;;;;;;;;;;;25.36;36.96;94948.28;4986574;28;8921;-52
2022/04/29 02:00:37;;;;;;;;;;;;;;;25.35;37.27;94952.31;5003298;28;9094;-52
2022/04/29 02:03:03;;;;;;;;;;;;;;;25.35;36.74;94946.78;4984704;28;7186;-50
2022/04/29 02:05:29;;;;;;;;;;;;;;;25.34;37.08;94942.53;4990953;28;6862;-53
2022/04/29 02:07:57;;;;;;;;;;;;;;;25.35;36.98;94935.78;5006230;28;8710;-51
2022/04/29 02:10:24;;;;;;;;;;;;;;;25.33;37.02;94936.28;4988754;28;7231;-52
2022/04/29 02:12:50;;;;;;;;;;;;;;;25.33;37.53;94932.78;4982539;28;7154;-53
2022/04/29 02:15:17;;;;;;;;;;;;;;;25.31;37.39;94929.75;4989708;28;9682;-52
2022/04/29 02:17:46;;;;;;;;;;;;;;;25.31;37.28;94929.75;4989016;28;7332;-52
2022/04/29 02:20:12;;;;;;;;;;;;;;;25.30;37.74;94929.00;4989078;28;9087;-51
2022/04/29 02:22:43;;;;;;;;;;;;;;;25.30;37.39;94931.00;4988272;28;7289;-53
2022/04/29 02:25:09;;;;;;;;;;;;;;;25.29;36.75;94926.75;4994255;28;9128;-52
2022/04/29 02:27:39;;;;;;;;;;;;;;;25.29;37.34;94929.50;4990451;28;7306;-51
2022/04/29 02:30:07;;;;;;;;;;;;;;;25.25;37.47;94920.75;4993664;28;7214;-53
2022/04/29 02:32:35;;;;;;;;;;;;;;;25.26;37.20;94923.00;4993442;28;7270;-50
2022/04/29 02:35:02;;;;;;;;;;;;;;;25.26;36.82;94925.75;5011139;28;9544;-49
2022/04/29 02:37:28;;;;;;;;;;;;;;;25.26;37.10;94927.72;4991016;28;8199;-50
2022/04/29 02:39:54;;;;;;;;;;;;;;;25.25;37.36;94924.22;4993588;28;8635;-51
2022/04/29 02:42:21;;;;;;;;;;;;;;;25.26;36.89;94916.72;4986513;28;7248;-52
2022/04/29 02:44:46;;;;;;;;;;;;;;;25.25;37.42;94904.22;4987766;28;7278;-51
2022/04/29 02:47:17;;;;;;;;;;;;;;;25.24;36.63;94908.22;4987387;28;7320;-51
2022/04/29 02:49:44;;;;;;;;;;;;;;;25.24;36.84;94911.72;5009263;28;9130;-51
2022/04/29 02:52:15;;;;;;;;;;;;;;;25.24;37.13;94908.22;5003351;28;7635;-51
2022/04/29 02:54:41;;;;;;;;;;;;;;;25.20;37.23;94894.69;4989069;28;7134;-49
2022/04/29 02:57:08;;;;;;;;;;;;;;;25.22;37.79;94905.19;5005024;28;9376;-51
2022/04/29 02:59:36;;;;;;;;;;;;;;;25.20;37.49;94896.69;5003347;28;9311;-51
2022/04/29 03:02:03;;;;;;;;;;;;;;;25.19;37.35;94892.41;4985459;28;7528;-51
2022/04/29 03:04:29;;;;;;;;;;;;;;;25.17;36.58;94886.66;4990007;28;9390;-52
2022/04/29 03:07:07;;;;;;;;;;;;;;;25.17;37.30;94881.16;4991707;28;7208;-52
2022/04/29 03:09:35;;;;;;;;;;;;;;;25.17;37.58;94881.16;4991180;28;8836;-52
2022/04/29 03:12:12;;;;;;;;;;;;;;;25.18;37.75;94882.66;4984826;28;7245;-53
2022/04/29 03:14:39;;;;;;;;;;;;;;;25.16;37.46;94874.16;5005388;28;9176;-53
2022/04/29 03:18:17;;;;;;;;;;;;;;;25.16;37.20;94876.91;4985079;28;9199;-52
2022/04/29 03:20:00;;;;;;;;;;;;;;;25.15;37.63;94883.66;4988332;28;9245;-53
2022/04/29 03:22:27;;;;;;;;;;;;;;;25.15;37.53;94878.16;5007060;28;7428;-51
2022/04/29 03:24:56;;;;;;;;;;;;;;;25.15;36.86;94881.66;4992406;28;9235;-52
2022/04/29 03:27:23;;;;;;;;;;;;;;;25.15;36.84;94872.63;4991392;28;9315;-50
2022/04/29 03:29:56;;;;;;;;;;;;;;;25.14;37.37;94884.91;4991267;28;9096;-52
2022/04/29 03:32:26;;;;;;;;;;;;;;;25.14;37.54;94888.41;4985761;28;7251;-51
2022/04/29 03:34:54;;;;;;;;;;;;;;;25.13;36.93;94877.88;5012669;28;7219;-51
2022/04/29 03:37:20;;;;;;;;;;;;;;;25.12;37.08;94874.38;4990041;28;8796;-53
2022/04/29 03:39:46;;;;;;;;;;;;;;;25.11;37.38;94881.16;4993062;28;7276;-48
2022/04/29 03:42:13;;;;;;;;;;;;;;;25.08;37.52;94873.09;4991280;28;7411;-53
2022/04/29 03:44:39;;;;;;;;;;;;;;;25.09;37.35;94874.63;4989772;28;7394;-53
2022/04/29 03:47:07;;;;;;;;;;;;;;;25.10;37.36;94871.38;4990780;28;7207;-51
2022/04/29 03:49:36;;;;;;;;;;;;;;;25.09;36.72;94872.63;5006671;28;9218;-51
2022/04/29 03:52:05;;;;;;;;;;;;;;;25.07;36.75;94877.88;4986093;28;7269;-53
2022/04/29 03:54:32;;;;;;;;;;;;;;;25.07;36.79;94880.63;5003523;28;9163;-50
2022/04/29 03:56:59;;;;;;;;;;;;;;;25.08;37.47;94884.13;5000580;28;8772;-52
2022/04/29 03:59:25;;;;;;;;;;;;;;;25.08;37.34;94889.63;5008211;28;7269;-52
2022/04/29 04:01:51;;;;;;;;;;;;;;;25.06;37.04;94887.38;4997053;28;7080;-52
2022/04/29 04:04:20;;;;;;;;;;;;;;;25.06;37.33;94892.13;4986555;28;7055;-52
2022/04/29 04:06:51;;;;;;;;;;;;;;;25.05;37.53;94879.63;4989117;28;7054;-51
2022/04/29 04:09:27;;;;;;;;;;;;;;;25.05;36.84;94885.13;4990172;28;7050;-53
2022/04/29 04:12:10;;;;;;;;;;;;;;;25.04;37.12;94887.13;4976310;28;7345;-52
2022/04/29 04:14:36;;;;;;;;;;;;;;;25.05;37.52;94885.13;4991210;28;7258;-52
2022/04/29 04:17:21;;;;;;;;;;;;;;;25.02;37.04;94875.09;4991688;28;9058;-52
2022/04/29 04:19:55;;;;;;;;;;;;;;;25.01;37.40;94877.09;5013359;28;6990;-50
2022/04/29 04:22:24;;;;;;;;;;;;;;;25.02;37.60;94886.88;4982721;28;7316;-53
2022/04/29 04:25:10;;;;;;;;;;;;;;;25.01;37.55;94879.13;4990957;28;7256;-51
2022/04/29 04:27:37;;;;;;;;;;;;;;;24.99;37.31;94881.59;4981348;28;7279;-48
2022/04/29 04:30:04;;;;;;;;;;;;;;;24.97;37.45;94881.34;4990399;28;9346;-53
2022/04/29 04:32:37;;;;;;;;;;;;;;;24.97;37.46;94887.59;4964786;28;9043;-52
2022/04/29 04:35:25;;;;;;;;;;;;;;;24.98;37.00;94891.84;4984690;28;9438;-50
2022/04/29 04:37:57;;;;;;;;;;;;;;;24.98;37.16;94891.84;4977128;28;8122;-52
2022/04/29 04:40:26;;;;;;;;;;;;;;;24.99;37.28;94898.13;4974285;28;8949;-50
2022/04/29 04:42:53;;;;;;;;;;;;;;;24.95;37.32;94892.06;4987845;28;9056;-53
2022/04/29 04:45:19;;;;;;;;;;;;;;;24.97;37.02;94895.13;4974397;28;7834;-52
2022/04/29 04:47:46;;;;;;;;;;;;;;;24.95;37.55;94892.84;4970539;28;10034;-52
2022/04/29 04:50:16;;;;;;;;;;;;;;;24.95;37.40;94886.56;4968897;28;7281;-51
2022/04/29 04:52:44;;;;;;;;;;;;;;;24.95;37.55;94897.59;4986289;28;8805;-52
2022/04/29 04:55:15;;;;;;;;;;;;;;;24.95;36.90;94898.34;4989566;28;9073;-51
2022/04/29 04:57:43;;;;;;;;;;;;;;;24.95;37.06;94900.34;4991522;28;7607;-52
2022/04/29 05:00:14;;;;;;;;;;;;;;;24.94;37.62;94896.84;4982011;28;9345;-52
2022/04/29 05:02:44;;;;;;;;;;;;;;;24.93;37.45;94900.06;4981874;28;7214;-51
2022/04/29 05:05:11;;;;;;;;;;;;;;;24.94;37.44;94907.09;4985219;28;8737;-51
2022/04/29 05:07:40;;;;;;;;;;;;;;;24.94;37.23;94905.09;4979218;28;9089;-53
2022/04/29 05:10:12;;;;;;;;;;;;;;;24.94;37.19;94907.09;4991456;28;7078;-52
2022/04/29 05:12:54;;;;;;;;;;;;;;;24.93;37.10;94908.34;4994272;28;7062;-49
2022/04/29 05:15:21;;;;;;;;;;;;;;;24.91;36.84;94900.56;4990053;28;8720;-53
2022/04/29 05:17:47;;;;;;;;;;;;;;;24.87;37.43;94904.81;5007263;28;9092;-52
2022/04/29 05:20:21;;;;;;;;;;;;;;;24.91;37.25;94913.56;4986144;28;7520;-52
2022/04/29 05:22:53;;;;;;;;;;;;;;;24.89;37.54;94905.81;4990300;28;7416;-52
2022/04/29 05:25:21;;;;;;;;;;;;;;;24.91;37.02;94919.09;4990569;28;9784;-53
2022/04/29 05:27:50;;;;;;;;;;;;;;;24.90;37.34;94920.34;4992461;28;9075;-52
2022/04/29 05:30:19;;;;;;;;;;;;;;;24.85;37.71;94918.31;5006569;28;7253;-50
2022/04/29 05:32:46;;;;;;;;;;;;;;;24.90;36.88;94928.59;4994353;28;6990;-52
2022/04/29 05:35:17;;;;;;;;;;;;;;;24.90;37.34;94926.59;4992743;28;9677;-52
2022/04/29 05:37:43;;;;;;;;;;;;;;;24.85;37.21;94929.31;4994642;28;7266;-50
2022/04/29 05:42:54;;;;;;;;;;;;;;;24.87;36.83;94935.84;4995361;28;9204;-50
2022/04/29 05:45:22;;;;;;;;;;;;;;;24.85;37.22;94932.06;4993254;28;9169;-51
2022/04/29 05:47:51;;;;;;;;;;;;;;;24.87;37.06;94941.34;4987214;28;8163;-51
2022/04/29 05:50:29;;;;;;;;;;;;;;;24.84;37.25;94942.31;4992317;28;9030;-51
2022/04/29 05:52:59;;;;;;;;;;;;;;;24.84;37.11;94945.06;5002251;28;9306;-53
2022/04/29 05:55:25;;;;;;;;;;;;;;;24.84;37.08;94941.59;4995839;28;8129;-53
2022/04/29 05:57:51;;;;;;;;;;;;;;;24.83;37.18;94942.81;5007837;28;7355;-51
2022/04/29 06:00:19;;;;;;;;;;;;;;;24.84;37.92;94947.81;4985493;28;9067;-53
2022/04/29 06:03:14;;;;;;;;;;;;;;;24.83;37.31;94946.31;4993681;28;9819;-52
2022/04/29 06:05:40;;;;;;;;;;;;;;;24.82;37.40;94942.06;4964535;28;7094;-52
2022/04/29 06:08:06;;;;;;;;;;;;;;;24.81;37.50;94945.31;4954972;28;9247;-53
2022/04/29 06:10:33;;;;;;;;;;;;;;;24.83;37.70;94943.56;4966298;28;7624;-53
2022/04/29 06:13:00;;;;;;;;;;;;;;;24.82;37.31;94944.81;4956490;28;8502;-53
2022/04/29 06:15:27;;;;;;;;;;;;;;;24.82;37.65;94949.53;4964510;28;7277;-53
2022/04/29 06:18:03;;;;;;;;;;;;;;;24.83;37.27;94951.06;4966315;28;7560;-50
2022/04/29 06:20:32;;;;;;;;;;;;;;;24.83;37.42;94942.81;4952560;28;7189;-53
2022/04/29 06:22:59;;;;;;;;;;;;;;;24.82;37.32;94944.81;4953630;28;9078;-54
2022/04/29 06:25:55;;;;;;;;;;;;;;;24.82;37.72;94944.81;4958508;28;7557;-54
2022/04/29 06:28:21;;;;;;;;;;;;;;;24.79;37.64;94942.28;4895919;29;7235;-53
2022/04/29 06:30:47;;;;;;;;;;;;;;;24.81;37.55;94948.06;4900378;29;8784;-53
2022/04/29 06:33:16;;;;;;;;;;;;;;;24.82;37.59;94939.31;4904657;29;6968;-51
2022/04/29 06:35:44;;;;;;;;;;;;;;;24.83;37.54;94940.81;4886983;29;7088;-52
2022/04/29 06:38:11;;;;;;;;;;;;;;;24.82;37.29;94947.56;4892849;29;7293;-54
2022/04/29 06:40:37;;;;;;;;;;;;;;;24.81;37.48;94945.31;4905698;29;7182;-54
2022/04/29 06:43:02;;;;;;;;;;;;;;;24.82;37.53;94949.53;4922321;29;7611;-54
2022/04/29 06:45:29;;;;;;;;;;;;;;;24.82;37.65;94941.28;4929260;29;8643;-53
2022/04/29 06:47:54;;;;;;;;;;;;;;;24.82;37.41;94949.53;4927404;28;9093;-52
2022/04/29 06:50:20;;;;;;;;;;;;;;;24.82;37.55;94949.53;4925901;28;6975;-53
2022/04/29 06:52:46;;;;;;;;;;;;;;;24.79;37.28;94945.03;4924441;29;7132;-52
2022/04/29 06:55:16;;;;;;;;;;;;;;;24.77;38.05;94942.03;4908501;29;7277;-51
2022/04/29 06:57:43;;;;;;;;;;;;;;;24.80;37.34;94941.78;4930089;29;8813;-53
2022/04/29 07:00:19;;;;;;;;;;;;;;;24.79;37.79;94945.03;4918188;29;7437;-50
2022/04/29 07:02:46;;;;;;;;;;;;;;;24.79;37.87;94942.28;4931311;29;7445;-51
2022/04/29 07:05:19;;;;;;;;;;;;;;;24.79;37.85;94936.78;4977216;28;7294;-52
2022/04/29 07:07:49;;;;;;;;;;;;;;;24.80;37.83;94935.53;5006428;28;9209;-52
2022/04/29 07:10:16;;;;;;;;;;;;;;;24.77;37.77;94937.28;4993325;28;7229;-53
2022/04/29 07:12:51;;;;;;;;;;;;;;;24.77;37.37;94936.53;4991347;28;7026;-53
2022/04/29 07:15:23;;;;;;;;;;;;;;;24.78;37.94;94940.78;4990834;28;8940;-52
2022/04/29 07:17:52;;;;;;;;;;;;;;;24.79;38.00;94939.53;4982522;28;6852;-52
2022/04/29 07:20:18;;;;;;;;;;;;;;;24.77;37.49;94926.28;4983517;28;9194;-51
2022/04/29 07:22:54;;;;;;;;;;;;;;;24.79;37.98;94931.28;4991849;28;8260;-51
2022/04/29 07:25:25;;;;;;;;;;;;;;;24.79;37.90;94936.78;4986390;28;9737;-51
2022/04/29 07:27:52;;;;;;;;;;;;;;;24.79;37.97;94923.03;4976035;28;8761;-53
2022/04/29 07:30:18;;;;;;;;;;;;;;;24.76;37.76;94918.50;4993542;28;8845;-49
2022/04/29 07:32:43;;;;;;;;;;;;;;;24.80;37.75;94927.28;4991692;28;9170;-50
2022/04/29 07:43:26;;;;;;;;;;;;;;;24.82;37.51;94911.03;4988413;28;9380;-52
2022/04/29 07:45:53;;;;;;;;;;;;;;;24.82;37.69;94922.03;4990797;28;7226;-52
2022/04/29 07:48:22;;;;;;;;;;;;;;;24.83;37.26;94920.81;4993021;28;7067;-53
2022/04/29 07:50:54;;;;;;;;;;;;;;;24.83;38.05;94918.06;4989279;28;9798;-51
2022/04/29 07:53:27;;;;;;;;;;;;;;;24.84;36.98;94919.56;4985951;28;9581;-51
2022/04/29 07:56:01;;;;;;;;;;;;;;;24.83;37.46;94916.06;4978492;28;9460;-53
2022/04/29 07:58:27;;;;;;;;;;;;;;;24.83;37.49;94913.31;4986038;28;9535;-53
2022/04/29 08:00:55;;;;;;;;;;;;;;;24.83;37.77;94912.53;4990936;28;7404;-51
2022/04/29 08:03:23;;;;;;;;;;;;;;;24.83;37.81;94907.03;5004768;28;7172;-52
2022/04/29 08:05:52;;;;;;;;;;;;;;;24.81;37.63;94898.53;4988302;28;7219;-51
2022/04/29 08:08:20;;;;;;;;;;;;;;;24.83;37.55;94907.03;4989016;28;10105;-52
2022/04/29 08:10:57;;;;;;;;;;;;;;;24.82;37.89;94906.28;4992636;28;7463;-49
2022/04/29 08:13:30;;;;;;;;;;;;;;;24.83;37.78;94909.81;4991942;28;6874;-47
2022/04/29 08:15:59;;;;;;;;;;;;;;;24.83;37.85;94907.03;4989412;28;8758;-53
2022/04/29 08:18:26;;;;;;;;;;;;;;;24.83;37.82;94907.81;5004774;28;7863;-51
2022/04/29 08:20:59;;;;;;;;;;;;;;;24.84;37.85;94908.56;5001925;28;9803;-52
2022/04/29 08:23:25;;;;;;;;;;;;;;;24.81;37.87;94904.78;4976412;28;7252;-51
2022/04/29 08:25:53;;;;;;;;;;;;;;;24.82;37.82;94916.53;4979980;28;6991;-51
2022/04/29 08:28:23;;;;;;;;;;;;;;;24.84;38.08;94914.06;4989652;28;7153;-51
2022/04/29 08:30:49;;;;;;;;;;;;;;;24.83;38.10;94907.03;4996153;28;7284;-52
2022/04/29 08:33:18;;;;;;;;;;;;;;;24.81;37.70;94901.28;4987467;28;7307;-51
2022/04/29 08:35:44;;;;;;;;;;;;;;;24.84;38.06;94909.28;4988551;28;8004;-52
2022/04/29 08:38:25;;;;;;;;;;;;;;;24.85;37.84;94907.31;5007964;28;9346;-51
2022/04/29 08:40:53;;;;;;;;;;;;;;;24.82;38.07;94905.53;5005285;28;7017;-51
2022/04/29 08:43:22;;;;;;;;;;;;;;;24.86;38.00;94912.31;4992004;28;7294;-53
2022/04/29 08:45:48;;;;;;;;;;;;;;;24.85;37.72;94905.31;4977253;28;9662;-53
2022/04/29 08:48:28;;;;;;;;;;;;;;;24.84;37.39;94901.03;4987946;28;7267;-51
2022/04/29 08:50:59;;;;;;;;;;;;;;;24.86;37.72;94904.06;4998605;28;9170;-51
2022/04/29 08:53:30;;;;;;;;;;;;;;;24.84;37.86;94903.06;4990154;28;7400;-51
2022/04/29 08:59:10;;;;;;;;;;;;;;;24.87;37.72;94900.06;4951864;28;9052;-52
2022/04/29 09:01:44;;;;;;;;;;;;;;;24.86;37.91;94909.56;4933413;28;8148;-50
2022/04/29 09:04:12;;;;;;;;;;;;;;;24.84;37.82;94903.06;4939351;28;7068;-52
2022/04/29 09:06:48;;;;;;;;;;;;;;;24.82;38.00;94906.28;4951391;28;9175;-52
2022/04/29 09:09:24;;;;;;;;;;;;;;;24.82;37.95;94894.53;4929740;28;8764;-52
2022/04/29 09:12:16;;;;;;;;;;;;;;;24.88;38.06;94898.06;4935368;28;8887;-52
2022/04/29 09:14:42;;;;;;;;;;;;;;;24.88;37.61;94903.56;4940034;28;9101;-53
2022/04/29 09:17:32;;;;;;;;;;;;;;;24.88;37.44;94898.06;4954631;28;9091;-52
2022/04/29 09:20:26;;;;;;;;;;;;;;;24.87;37.79;94886.31;4934928;28;10081;-52
2022/04/29 09:22:52;;;;;;;;;;;;;;;24.88;37.86;94889.81;4949339;28;9493;-52
2022/04/29 09:25:24;;;;;;;;;;;;;;;24.88;37.58;94892.56;4937494;28;9434;-53
2022/04/29 09:28:01;;;;;;;;;;;;;;;24.89;38.18;94894.81;4953334;28;8653;-49
2022/04/29 09:30:40;;;;;;;;;;;;;;;24.90;37.54;94888.09;4946037;28;9224;-52
2022/04/29 09:33:20;;;;;;;;;;;;;;;24.91;38.06;94888.81;4934548;29;7227;-50
2022/04/29 09:35:48;;;;;;;;;;;;;;;24.90;37.89;94888.09;4970845;28;7211;-52
2022/04/29 09:41:05;;;;;;;;;;;;;;;24.92;38.14;94882.84;4990178;28;8222;-53
2022/04/29 09:43:44;;;;;;;;;;;;;;;24.94;37.78;94887.84;5004697;28;7008;-53
2022/04/29 09:46:19;;;;;;;;;;;;;;;24.95;37.72;94895.59;4986980;28;9298;-53
2022/04/29 09:48:53;;;;;;;;;;;;;;;24.98;37.61;94896.59;4990770;28;7035;-52
2022/04/29 09:51:43;;;;;;;;;;;;;;;24.98;37.37;94891.09;4989446;28;7242;-51
2022/04/29 09:54:27;;;;;;;;;;;;;;;24.99;37.86;94887.13;4985549;28;7275;-53
2022/04/29 09:57:11;;;;;;;;;;;;;;;24.99;37.32;94889.88;4983059;28;8158;-52
2022/04/29 10:00:07;;;;;;;;;;;;;;;25.00;38.11;94883.09;4981917;28;7091;-52
2022/04/29 10:02:48;;;;;;;;;;;;;;;25.00;37.67;94888.59;4952286;28;9112;-51
2022/04/29 10:05:14;;;;;;;;;;;;;;;25.01;38.03;94884.63;4956510;28;9111;-53
2022/04/29 10:07:44;;;;;;;;;;;;;;;25.02;37.53;94888.84;4956662;28;7437;-52
2022/04/29 10:10:13;;;;;;;;;;;;;;;25.03;37.70;94879.38;4951454;28;8962;-53
2022/04/29 10:12:47;;;;;;;;;;;;;;;25.05;37.56;94882.38;4959022;28;9194;-52
2022/04/29 10:15:17;;;;;;;;;;;;;;;25.03;37.21;94873.88;4943694;29;9374;-50
2022/04/29 10:23:26;;;;;;;;;;;;;;;25.06;37.40;94875.59;4960820;28;7471;-52
2022/04/29 10:25:55;;;;;;;;;;;;;;;25.05;37.65;94876.88;4960912;28;7246;-52
2022/04/29 10:28:25;;;;;;;;;;;;;;;25.06;37.47;94879.13;4956060;28;8697;-52
2022/04/29 10:31:09;;;;;;;;;;;;;;;25.06;37.67;94876.38;4952368;28;7610;-51
2022/04/29 10:33:46;;;;;;;;;;;;;;;25.07;37.99;94868.88;4970872;28;7032;-52
2022/04/29 10:36:16;;;;;;;;;;;;;;;25.08;37.76;94864.84;4970130;28;9087;-53
2022/04/29 10:38:46;;;;;;;;;;;;;;;25.09;37.88;94863.63;4970238;28;9400;-50
2022/04/29 10:41:17;;;;;;;;;;;;;;;25.08;38.13;94870.34;5006091;28;9140;-52
2022/04/29 10:44:04;;;;;;;;;;;;;;;25.10;37.09;94865.88;4990548;28;8367;-53
2022/04/29 10:46:39;;;;;;;;;;;;;;;25.10;37.69;94867.88;5000677;28;7193;-54
2022/04/29 10:49:36;;;;;;;;;;;;;;;25.10;37.39;94856.88;5015114;28;8782;-53
2022/04/29 10:52:03;;;;;;;;;;;;;;;25.11;37.94;94855.63;4916726;29;7114;-54
2022/04/29 10:54:35;;;;;;;;;;;;;;;25.12;37.00;94854.38;4917798;29;7018;-54
2022/04/29 10:57:04;;;;;;;;;;;;;;;25.12;37.92;94855.13;4933661;28;8872;-53
2022/04/29 10:59:53;;;;;;;;;;;;;;;25.13;37.32;94851.13;4924417;28;7029;-53
2022/04/29 11:02:28;;;;;;;;;;;;;;;25.13;37.44;94844.84;4918238;28;9615;-53
2022/04/29 11:04:56;;;;;;;;;;;;;;;25.10;37.49;94838.34;4915754;28;9267;-54
2022/04/29 11:07:44;;;;;;;;;;;;;;;25.14;38.16;94838.84;4930977;28;6857;-54
2022/04/29 11:10:13;;;;;;;;;;;;;;;25.15;37.33;94837.63;4928448;28;7287;-54
2022/04/29 11:12:54;;;;;;;;;;;;;;;25.14;37.11;94827.84;4925025;29;7232;-54
2022/04/29 11:15:24;;;;;;;;;;;;;;;25.15;37.68;94834.09;4930542;28;7110;-54
2022/04/29 11:18:22;;;;;;;;;;;;;;;25.18;38.02;94830.38;4920994;28;9450;-54
2022/04/29 11:20:55;;;;;;;;;;;;;;;25.18;38.08;94828.38;4907192;29;7321;-54
2022/04/29 11:26:18;;;;;;;;;;;;;;;25.20;37.82;94819.59;4925342;28;7445;-54
2022/04/29 11:28:52;;;;;;;;;;;;;;;25.21;37.28;94821.09;4963210;28;7199;-54
2022/04/29 11:31:20;;;;;;;;;;;;;;;25.22;37.66;94811.59;4979182;28;7566;-54
2022/04/29 11:33:48;;;;;;;;;;;;;;;25.21;37.21;94821.09;4991174;28;9195;-53
2022/04/29 11:36:22;;;;;;;;;;;;;;;25.23;37.75;94822.09;5004556;28;7236;-53
2022/04/29 11:38:49;;;;;;;;;;;;;;;25.25;37.17;94810.63;5006873;28;7509;-54
2022/04/29 11:41:20;;;;;;;;;;;;;;;25.25;37.50;94805.09;4990536;28;7354;-53
2022/04/29 11:43:50;;;;;;;;;;;;;;;25.26;37.47;94806.59;4993509;28;7675;-53
2022/04/29 11:46:32;;;;;;;;;;;;;;;25.27;37.52;94808.13;5008394;28;9201;-54
2022/04/29 11:49:28;;;;;;;;;;;;;;;25.29;37.42;94805.63;5004713;28;6887;-53
2022/04/29 11:51:56;;;;;;;;;;;;;;;25.28;37.95;94798.59;4989075;28;9211;-54
2022/04/29 11:54:25;;;;;;;;;;;;;;;25.32;37.22;94799.09;4991337;28;9216;-53
2022/04/29 11:56:53;;;;;;;;;;;;;;;25.33;37.10;94800.59;4992233;28;9047;-53
2022/04/29 11:59:31;;;;;;;;;;;;;;;25.33;37.73;94795.84;4992622;28;7502;-54
2022/04/29 12:02:09;;;;;;;;;;;;;;;25.35;36.99;94782.34;4990336;28;7872;-53
2022/04/29 12:04:54;;;;;;;;;;;;;;;25.37;36.87;94784.59;5015075;28;9065;-53
2022/04/29 12:07:21;;;;;;;;;;;;;;;25.39;37.47;94785.59;5002308;28;7334;-53
2022/04/29 12:09:56;;;;;;;;;;;;;;;25.40;36.74;94780.84;5002793;28;8281;-53
2022/04/29 12:12:28;;;;;;;;;;;;;;;25.39;37.06;94782.09;4983974;28;7289;-52
2022/04/29 12:14:58;;;;;;;;;;;;;;;25.38;37.95;94778.56;4988239;28;9157;-53
2022/04/29 12:17:36;;;;;;;;;;;;;;;25.38;37.42;94786.09;5002988;28;7209;-53
2022/04/29 12:20:05;;;;;;;;;;;;;;;25.37;37.35;94782.59;4980894;28;7282;-53
2022/04/29 12:22:34;;;;;;;;;;;;;;;25.37;37.31;94779.06;5002579;28;7229;-53
2022/04/29 12:25:27;;;;;;;;;;;;;;;25.35;37.39;94773.31;4987683;28;7647;-53
2022/04/29 12:28:11;;;;;;;;;;;;;;;25.36;37.91;94772.06;4987446;28;9106;-52
2022/04/29 12:36:16;;;;;;;;;;;;;;;25.39;37.22;94762.81;4989237;28;7263;-53
2022/04/29 12:38:45;;;;;;;;;;;;;;;25.40;37.11;94764.31;4986320;28;6995;-53
2022/04/29 12:41:25;;;;;;;;;;;;;;;25.41;37.22;94760.31;4989665;28;9167;-53
2022/04/29 12:43:52;;;;;;;;;;;;;;;25.41;37.39;94760.31;4986229;28;7249;-53
2022/04/29 12:46:21;;;;;;;;;;;;;;;25.41;37.66;94757.53;4986861;28;7087;-53
2022/04/29 12:48:53;;;;;;;;;;;;;;;25.43;37.28;94755.06;4984470;28;8997;-52
2022/04/29 12:51:34;;;;;;;;;;;;;;;25.45;37.04;94749.81;4986130;28;7534;-54
2022/04/29 12:54:03;;;;;;;;;;;;;;;25.47;37.18;94755.56;4985421;28;9418;-53
2022/04/29 12:56:34;;;;;;;;;;;;;;;25.47;37.64;94747.31;4986994;28;7884;-53
2022/04/29 12:59:03;;;;;;;;;;;;;;;25.50;37.00;94753.81;4985254;28;9326;-53
2022/04/29 13:01:55;;;;;;;;;;;;;;;25.51;37.49;94752.56;4991916;28;9056;-53
2022/04/29 13:04:23;;;;;;;;;;;;;;;25.52;37.65;94741.06;4989703;28;8912;-54
2022/04/29 13:06:56;;;;;;;;;;;;;;;25.50;37.75;94737.28;4987378;28;8761;-51
2022/04/29 13:09:25;;;;;;;;;;;;;;;25.55;37.48;94737.31;4986834;28;9602;-53
2022/04/29 13:11:52;;;;;;;;;;;;;;;25.56;36.60;94733.28;4986065;28;7178;-52
2022/04/29 13:14:18;;;;;;;;;;;;;;;25.57;37.31;94734.03;5001185;28;6998;-53
2022/04/29 13:16:44;;;;;;;;;;;;;;;25.58;36.97;94728.03;4986888;28;9124;-53
2022/04/29 13:19:13;;;;;;;;;;;;;;;25.59;37.06;94729.53;4945748;28;7767;-53
2022/04/29 13:21:42;;;;;;;;;;;;;;;25.62;36.77;94731.25;4981276;28;8788;-52
2022/04/29 13:24:10;;;;;;;;;;;;;;;25.65;37.27;94727.50;4986560;28;9450;-53
2022/04/29 13:26:37;;;;;;;;;;;;;;;25.65;37.06;94722.00;4986128;28;8728;-53
2022/04/29 13:29:14;;;;;;;;;;;;;;;25.65;37.34;94707.47;4989344;28;9017;-53
2022/04/29 13:32:07;;;;;;;;;;;;;;;25.65;37.30;94716.50;4984314;28;9161;-53
2022/04/29 13:34:33;;;;;;;;;;;;;;;25.67;37.16;94719.50;4991016;28;9183;-51
2022/04/29 13:36:59;;;;;;;;;;;;;;;25.68;37.76;94710.00;4990959;28;9049;-53
2022/04/29 13:39:25;;;;;;;;;;;;;;;25.73;37.59;94711.97;4986914;28;7121;-53
2022/04/29 13:41:51;;;;;;;;;;;;;;;25.71;37.35;94708.97;5004677;28;7426;-52
2022/04/29 13:44:19;;;;;;;;;;;;;;;25.77;37.23;94706.97;4990159;28;8648;-53
2022/04/29 13:46:46;;;;;;;;;;;;;;;25.80;36.93;94710.69;5006262;28;8911;-52
2022/04/29 13:49:14;;;;;;;;;;;;;;;25.79;36.76;94707.22;4989734;28;7603;-52
2022/04/29 13:51:40;;;;;;;;;;;;;;;25.82;37.46;94697.94;4990707;28;9124;-53